sensor_id;sensor_type;location;lat;lon;timestamp;P1;durP1;ratioP1;P2;durP2;ratioP2
67191;SDS011;54120;53.504;49.426;2023-06-14T00:00:59;4.07;;;2.08;;
67191;SDS011;54120;53.504;49.426;2023-06-14T00:03:25;2.85;;;2.00;;
67191;SDS011;54120;53.504;49.426;2023-06-14T00:05:51;4.25;;;2.28;;
67191;SDS011;54120;53.504;49.426;2023-06-14T00:08:17;8.35;;;2.15;;
67191;SDS011;54120;53.504;49.426;2023-06-14T00:10:44;4.40;;;1.98;;
67191;SDS011;54120;53.504;49.426;2023-06-14T00:13:10;6.75;;;2.25;;
67191;SDS011;54120;53.504;49.426;2023-06-14T00:15:37;5.97;;;2.50;;
67191;SDS011;54120;53.504;49.426;2023-06-14T00:18:04;5.43;;;2.53;;
67191;SDS011;54120;53.504;49.426;2023-06-14T00:20:31;2.83;;;2.50;;
67191;SDS011;54120;53.504;49.426;2023-06-14T00:22:59;2.63;;;2.42;;
67191;SDS011;54120;53.504;49.426;2023-06-14T00:25:26;2.55;;;2.30;;
67191;SDS011;54120;53.504;49.426;2023-06-14T00:27:52;4.63;;;2.33;;
67191;SDS011;54120;53.504;49.426;2023-06-14T00:30:19;8.32;;;2.60;;
67191;SDS011;54120;53.504;49.426;2023-06-14T00:32:46;3.33;;;2.50;;
67191;SDS011;54120;53.504;49.426;2023-06-14T00:35:13;3.45;;;2.72;;
67191;SDS011;54120;53.504;49.426;2023-06-14T00:37:39;7.85;;;2.58;;
67191;SDS011;54120;53.504;49.426;2023-06-14T00:40:05;3.63;;;2.45;;
67191;SDS011;54120;53.504;49.426;2023-06-14T00:42:32;2.65;;;2.45;;
67191;SDS011;54120;53.504;49.426;2023-06-14T00:44:59;5.88;;;2.50;;
67191;SDS011;54120;53.504;49.426;2023-06-14T00:47:26;4.05;;;2.70;;
67191;SDS011;54120;53.504;49.426;2023-06-14T00:49:53;6.78;;;2.58;;
67191;SDS011;54120;53.504;49.426;2023-06-14T00:52:22;4.72;;;2.13;;
67191;SDS011;54120;53.504;49.426;2023-06-14T00:54:49;5.30;;;2.50;;
67191;SDS011;54120;53.504;49.426;2023-06-14T00:57:16;4.18;;;2.30;;
67191;SDS011;54120;53.504;49.426;2023-06-14T00:59:43;2.65;;;2.15;;
67191;SDS011;54120;53.504;49.426;2023-06-14T01:02:11;3.22;;;2.65;;
67191;SDS011;54120;53.504;49.426;2023-06-14T01:04:38;6.53;;;2.30;;
67191;SDS011;54120;53.504;49.426;2023-06-14T01:07:13;6.68;;;2.38;;
67191;SDS011;54120;53.504;49.426;2023-06-14T01:15:38;5.15;;;2.63;;
67191;SDS011;54120;53.504;49.426;2023-06-14T01:18:06;2.92;;;2.20;;
67191;SDS011;54120;53.504;49.426;2023-06-14T01:20:33;3.05;;;2.08;;
67191;SDS011;54120;53.504;49.426;2023-06-14T01:23:03;4.05;;;2.40;;
67191;SDS011;54120;53.504;49.426;2023-06-14T01:25:29;4.93;;;2.35;;
67191;SDS011;54120;53.504;49.426;2023-06-14T01:27:57;4.38;;;2.50;;
67191;SDS011;54120;53.504;49.426;2023-06-14T01:30:26;2.90;;;2.10;;
67191;SDS011;54120;53.504;49.426;2023-06-14T01:32:54;4.03;;;2.47;;
67191;SDS011;54120;53.504;49.426;2023-06-14T01:35:21;4.57;;;2.13;;
67191;SDS011;54120;53.504;49.426;2023-06-14T01:37:48;3.08;;;2.40;;
67191;SDS011;54120;53.504;49.426;2023-06-14T01:40:15;3.50;;;2.33;;
67191;SDS011;54120;53.504;49.426;2023-06-14T01:42:43;2.78;;;2.30;;
67191;SDS011;54120;53.504;49.426;2023-06-14T01:45:11;3.80;;;2.30;;
67191;SDS011;54120;53.504;49.426;2023-06-14T01:47:37;2.72;;;2.20;;
67191;SDS011;54120;53.504;49.426;2023-06-14T01:50:03;4.13;;;2.42;;
67191;SDS011;54120;53.504;49.426;2023-06-14T01:52:30;5.05;;;2.30;;
67191;SDS011;54120;53.504;49.426;2023-06-14T01:54:56;2.83;;;2.33;;
67191;SDS011;54120;53.504;49.426;2023-06-14T01:57:23;4.15;;;2.58;;
67191;SDS011;54120;53.504;49.426;2023-06-14T01:59:51;10.73;;;2.38;;
67191;SDS011;54120;53.504;49.426;2023-06-14T02:02:18;3.97;;;2.35;;
67191;SDS011;54120;53.504;49.426;2023-06-14T02:04:44;2.45;;;2.20;;
67191;SDS011;54120;53.504;49.426;2023-06-14T02:07:13;4.88;;;2.47;;
67191;SDS011;54120;53.504;49.426;2023-06-14T02:09:40;7.85;;;2.63;;
67191;SDS011;54120;53.504;49.426;2023-06-14T02:12:07;6.45;;;2.50;;
67191;SDS011;54120;53.504;49.426;2023-06-14T02:14:33;7.25;;;2.63;;
67191;SDS011;54120;53.504;49.426;2023-06-14T02:16:59;3.42;;;2.47;;
67191;SDS011;54120;53.504;49.426;2023-06-14T02:19:26;4.90;;;2.28;;
67191;SDS011;54120;53.504;49.426;2023-06-14T02:21:52;5.18;;;2.70;;
67191;SDS011;54120;53.504;49.426;2023-06-14T02:24:18;4.68;;;2.58;;
67191;SDS011;54120;53.504;49.426;2023-06-14T02:26:45;3.78;;;2.20;;
67191;SDS011;54120;53.504;49.426;2023-06-14T02:29:11;5.25;;;2.00;;
67191;SDS011;54120;53.504;49.426;2023-06-14T02:31:40;5.30;;;2.40;;
67191;SDS011;54120;53.504;49.426;2023-06-14T02:34:06;6.25;;;2.05;;
67191;SDS011;54120;53.504;49.426;2023-06-14T02:36:34;4.05;;;2.30;;
67191;SDS011;54120;53.504;49.426;2023-06-14T02:39:00;3.05;;;2.42;;
67191;SDS011;54120;53.504;49.426;2023-06-14T02:41:26;4.13;;;2.40;;
67191;SDS011;54120;53.504;49.426;2023-06-14T02:43:53;4.32;;;2.45;;
67191;SDS011;54120;53.504;49.426;2023-06-14T02:46:19;3.20;;;2.25;;
67191;SDS011;54120;53.504;49.426;2023-06-14T02:48:45;4.45;;;2.50;;
67191;SDS011;54120;53.504;49.426;2023-06-14T02:51:11;4.70;;;2.30;;
67191;SDS011;54120;53.504;49.426;2023-06-14T02:53:38;4.38;;;2.50;;
67191;SDS011;54120;53.504;49.426;2023-06-14T02:56:04;5.60;;;2.38;;
67191;SDS011;54120;53.504;49.426;2023-06-14T02:58:30;4.07;;;2.30;;
67191;SDS011;54120;53.504;49.426;2023-06-14T03:00:57;4.63;;;2.20;;
67191;SDS011;54120;53.504;49.426;2023-06-14T03:03:23;5.28;;;2.28;;
67191;SDS011;54120;53.504;49.426;2023-06-14T03:05:50;4.97;;;2.33;;
67191;SDS011;54120;53.504;49.426;2023-06-14T03:08:17;5.68;;;2.30;;
67191;SDS011;54120;53.504;49.426;2023-06-14T03:10:48;3.97;;;2.40;;
67191;SDS011;54120;53.504;49.426;2023-06-14T03:13:15;6.38;;;2.80;;
67191;SDS011;54120;53.504;49.426;2023-06-14T03:15:42;4.28;;;2.47;;
67191;SDS011;54120;53.504;49.426;2023-06-14T03:18:10;4.53;;;2.60;;
67191;SDS011;54120;53.504;49.426;2023-06-14T03:20:37;3.30;;;2.58;;
67191;SDS011;54120;53.504;49.426;2023-06-14T03:23:04;6.47;;;2.83;;
67191;SDS011;54120;53.504;49.426;2023-06-14T03:25:31;5.38;;;2.50;;
67191;SDS011;54120;53.504;49.426;2023-06-14T03:27:58;5.07;;;2.40;;
67191;SDS011;54120;53.504;49.426;2023-06-14T03:30:24;6.25;;;3.30;;
67191;SDS011;54120;53.504;49.426;2023-06-14T03:32:50;5.47;;;3.17;;
67191;SDS011;54120;53.504;49.426;2023-06-14T03:35:18;5.70;;;2.90;;
67191;SDS011;54120;53.504;49.426;2023-06-14T03:37:45;4.10;;;2.92;;
67191;SDS011;54120;53.504;49.426;2023-06-14T03:40:12;5.10;;;2.80;;
67191;SDS011;54120;53.504;49.426;2023-06-14T03:42:39;7.85;;;2.85;;
67191;SDS011;54120;53.504;49.426;2023-06-14T03:45:06;6.00;;;2.75;;
67191;SDS011;54120;53.504;49.426;2023-06-14T03:47:32;3.53;;;2.95;;
67191;SDS011;54120;53.504;49.426;2023-06-14T03:49:59;5.38;;;2.60;;
67191;SDS011;54120;53.504;49.426;2023-06-14T03:52:26;4.28;;;2.58;;
67191;SDS011;54120;53.504;49.426;2023-06-14T03:54:53;3.13;;;2.38;;
67191;SDS011;54120;53.504;49.426;2023-06-14T03:57:19;4.15;;;2.42;;
67191;SDS011;54120;53.504;49.426;2023-06-14T03:59:48;3.85;;;2.72;;
67191;SDS011;54120;53.504;49.426;2023-06-14T04:02:15;4.53;;;2.40;;
67191;SDS011;54120;53.504;49.426;2023-06-14T04:04:41;11.93;;;2.75;;
67191;SDS011;54120;53.504;49.426;2023-06-14T04:07:11;4.72;;;2.50;;
67191;SDS011;54120;53.504;49.426;2023-06-14T04:09:40;6.15;;;2.70;;
67191;SDS011;54120;53.504;49.426;2023-06-14T04:12:07;4.13;;;2.55;;
67191;SDS011;54120;53.504;49.426;2023-06-14T04:14:34;5.18;;;2.72;;
67191;SDS011;54120;53.504;49.426;2023-06-14T04:17:00;2.85;;;2.47;;
67191;SDS011;54120;53.504;49.426;2023-06-14T04:19:26;3.53;;;2.50;;
67191;SDS011;54120;53.504;49.426;2023-06-14T04:21:53;4.25;;;2.72;;
67191;SDS011;54120;53.504;49.426;2023-06-14T04:24:19;5.82;;;2.85;;
67191;SDS011;54120;53.504;49.426;2023-06-14T04:26:45;6.78;;;2.80;;
67191;SDS011;54120;53.504;49.426;2023-06-14T04:29:13;4.05;;;2.75;;
67191;SDS011;54120;53.504;49.426;2023-06-14T04:31:44;5.72;;;2.80;;
67191;SDS011;54120;53.504;49.426;2023-06-14T04:34:12;8.65;;;2.90;;
67191;SDS011;54120;53.504;49.426;2023-06-14T04:36:42;6.50;;;2.80;;
67191;SDS011;54120;53.504;49.426;2023-06-14T04:39:18;5.28;;;2.67;;
67191;SDS011;54120;53.504;49.426;2023-06-14T04:41:46;3.25;;;2.58;;
67191;SDS011;54120;53.504;49.426;2023-06-14T04:44:13;2.50;;;2.30;;
67191;SDS011;54120;53.504;49.426;2023-06-14T04:46:42;5.63;;;2.70;;
67191;SDS011;54120;53.504;49.426;2023-06-14T04:49:17;3.35;;;2.65;;
67191;SDS011;54120;53.504;49.426;2023-06-14T04:51:44;4.45;;;3.08;;
67191;SDS011;54120;53.504;49.426;2023-06-14T04:54:12;7.63;;;3.00;;
67191;SDS011;54120;53.504;49.426;2023-06-14T04:56:39;5.28;;;2.97;;
67191;SDS011;54120;53.504;49.426;2023-06-14T04:59:08;6.72;;;2.88;;
67191;SDS011;54120;53.504;49.426;2023-06-14T05:01:34;3.88;;;3.10;;
67191;SDS011;54120;53.504;49.426;2023-06-14T05:04:00;10.10;;;3.50;;
67191;SDS011;54120;53.504;49.426;2023-06-14T05:06:27;3.40;;;2.70;;
67191;SDS011;54120;53.504;49.426;2023-06-14T05:08:54;7.53;;;3.10;;
67191;SDS011;54120;53.504;49.426;2023-06-14T05:11:20;4.57;;;3.17;;
67191;SDS011;54120;53.504;49.426;2023-06-14T05:13:49;7.65;;;3.33;;
67191;SDS011;54120;53.504;49.426;2023-06-14T05:16:16;3.88;;;2.60;;
67191;SDS011;54120;53.504;49.426;2023-06-14T05:18:45;7.63;;;3.85;;
67191;SDS011;54120;53.504;49.426;2023-06-14T05:21:12;8.45;;;3.10;;
67191;SDS011;54120;53.504;49.426;2023-06-14T05:23:43;5.13;;;3.05;;
67191;SDS011;54120;53.504;49.426;2023-06-14T05:26:10;8.35;;;2.90;;
67191;SDS011;54120;53.504;49.426;2023-06-14T05:28:36;6.40;;;2.92;;
67191;SDS011;54120;53.504;49.426;2023-06-14T05:31:02;6.47;;;3.08;;
67191;SDS011;54120;53.504;49.426;2023-06-14T05:33:28;5.13;;;2.85;;
67191;SDS011;54120;53.504;49.426;2023-06-14T05:35:54;6.40;;;2.83;;
67191;SDS011;54120;53.504;49.426;2023-06-14T05:38:21;6.38;;;2.42;;
67191;SDS011;54120;53.504;49.426;2023-06-14T05:40:47;9.18;;;2.85;;
67191;SDS011;54120;53.504;49.426;2023-06-14T05:43:13;7.47;;;3.00;;
67191;SDS011;54120;53.504;49.426;2023-06-14T05:45:39;10.38;;;3.60;;
67191;SDS011;54120;53.504;49.426;2023-06-14T05:48:05;7.90;;;2.88;;
67191;SDS011;54120;53.504;49.426;2023-06-14T05:50:32;5.38;;;2.90;;
67191;SDS011;54120;53.504;49.426;2023-06-14T05:52:58;10.88;;;3.13;;
67191;SDS011;54120;53.504;49.426;2023-06-14T05:55:24;3.33;;;2.75;;
67191;SDS011;54120;53.504;49.426;2023-06-14T05:57:50;5.95;;;2.80;;
67191;SDS011;54120;53.504;49.426;2023-06-14T06:00:17;5.55;;;3.20;;
67191;SDS011;54120;53.504;49.426;2023-06-14T06:02:45;5.40;;;3.05;;
67191;SDS011;54120;53.504;49.426;2023-06-14T06:05:13;6.75;;;3.22;;
67191;SDS011;54120;53.504;49.426;2023-06-14T06:07:39;3.25;;;2.90;;
67191;SDS011;54120;53.504;49.426;2023-06-14T06:10:05;4.38;;;2.97;;
67191;SDS011;54120;53.504;49.426;2023-06-14T06:12:32;5.90;;;3.15;;
67191;SDS011;54120;53.504;49.426;2023-06-14T06:14:59;8.57;;;3.35;;
67191;SDS011;54120;53.504;49.426;2023-06-14T06:17:25;5.13;;;2.72;;
67191;SDS011;54120;53.504;49.426;2023-06-14T06:19:52;8.88;;;3.00;;
67191;SDS011;54120;53.504;49.426;2023-06-14T06:22:18;3.15;;;2.53;;
67191;SDS011;54120;53.504;49.426;2023-06-14T06:24:44;5.15;;;2.80;;
67191;SDS011;54120;53.504;49.426;2023-06-14T06:27:10;4.22;;;2.60;;
67191;SDS011;54120;53.504;49.426;2023-06-14T06:29:37;7.47;;;2.83;;
67191;SDS011;54120;53.504;49.426;2023-06-14T06:32:04;4.03;;;2.80;;
67191;SDS011;54120;53.504;49.426;2023-06-14T06:34:30;4.00;;;2.83;;
67191;SDS011;54120;53.504;49.426;2023-06-14T06:36:56;7.07;;;2.67;;
67191;SDS011;54120;53.504;49.426;2023-06-14T06:39:22;4.18;;;2.38;;
67191;SDS011;54120;53.504;49.426;2023-06-14T06:41:49;5.82;;;2.80;;
67191;SDS011;54120;53.504;49.426;2023-06-14T06:44:15;6.72;;;3.10;;
67191;SDS011;54120;53.504;49.426;2023-06-14T06:46:41;3.92;;;2.90;;
67191;SDS011;54120;53.504;49.426;2023-06-14T06:49:08;4.07;;;2.92;;
67191;SDS011;54120;53.504;49.426;2023-06-14T06:51:37;10.63;;;2.92;;
67191;SDS011;54120;53.504;49.426;2023-06-14T06:54:07;3.30;;;2.70;;
67191;SDS011;54120;53.504;49.426;2023-06-14T06:56:34;3.45;;;2.58;;
67191;SDS011;54120;53.504;49.426;2023-06-14T06:59:00;7.13;;;2.40;;
67191;SDS011;54120;53.504;49.426;2023-06-14T07:01:26;4.68;;;2.40;;
67191;SDS011;54120;53.504;49.426;2023-06-14T07:03:54;4.28;;;2.72;;
67191;SDS011;54120;53.504;49.426;2023-06-14T07:06:21;5.25;;;2.78;;
67191;SDS011;54120;53.504;49.426;2023-06-14T07:08:47;6.22;;;2.80;;
67191;SDS011;54120;53.504;49.426;2023-06-14T07:11:16;7.25;;;3.22;;
67191;SDS011;54120;53.504;49.426;2023-06-14T07:13:42;5.18;;;3.03;;
67191;SDS011;54120;53.504;49.426;2023-06-14T07:16:08;8.27;;;2.97;;
67191;SDS011;54120;53.504;49.426;2023-06-14T07:18:34;5.35;;;2.78;;
67191;SDS011;54120;53.504;49.426;2023-06-14T07:21:01;4.80;;;2.90;;
67191;SDS011;54120;53.504;49.426;2023-06-14T07:23:27;4.05;;;3.17;;
67191;SDS011;54120;53.504;49.426;2023-06-14T07:25:53;3.30;;;3.00;;
67191;SDS011;54120;53.504;49.426;2023-06-14T07:28:19;11.85;;;3.67;;
67191;SDS011;54120;53.504;49.426;2023-06-14T07:30:46;6.30;;;3.80;;
67191;SDS011;54120;53.504;49.426;2023-06-14T07:33:13;12.48;;;3.72;;
67191;SDS011;54120;53.504;49.426;2023-06-14T07:35:39;5.50;;;3.30;;
67191;SDS011;54120;53.504;49.426;2023-06-14T07:38:06;7.50;;;4.00;;
67191;SDS011;54120;53.504;49.426;2023-06-14T07:40:31;7.65;;;3.83;;
67191;SDS011;54120;53.504;49.426;2023-06-14T07:42:58;9.07;;;3.72;;
67191;SDS011;54120;53.504;49.426;2023-06-14T07:45:24;7.75;;;3.70;;
67191;SDS011;54120;53.504;49.426;2023-06-14T07:47:50;7.63;;;3.50;;
67191;SDS011;54120;53.504;49.426;2023-06-14T07:50:17;7.28;;;3.85;;
67191;SDS011;54120;53.504;49.426;2023-06-14T07:52:43;7.25;;;3.80;;
67191;SDS011;54120;53.504;49.426;2023-06-14T07:55:09;7.30;;;3.60;;
67191;SDS011;54120;53.504;49.426;2023-06-14T07:57:35;11.77;;;3.83;;
67191;SDS011;54120;53.504;49.426;2023-06-14T08:00:03;6.25;;;3.60;;
67191;SDS011;54120;53.504;49.426;2023-06-14T08:02:32;3.92;;;3.30;;
67191;SDS011;54120;53.504;49.426;2023-06-14T08:04:58;5.38;;;3.42;;
67191;SDS011;54120;53.504;49.426;2023-06-14T08:07:24;8.80;;;3.45;;
67191;SDS011;54120;53.504;49.426;2023-06-14T08:09:50;5.43;;;3.90;;
67191;SDS011;54120;53.504;49.426;2023-06-14T08:12:16;5.53;;;3.55;;
67191;SDS011;54120;53.504;49.426;2023-06-14T08:14:42;5.00;;;3.58;;
67191;SDS011;54120;53.504;49.426;2023-06-14T08:17:09;6.88;;;3.30;;
67191;SDS011;54120;53.504;49.426;2023-06-14T08:19:35;8.40;;;3.50;;
67191;SDS011;54120;53.504;49.426;2023-06-14T08:22:01;7.72;;;3.50;;
67191;SDS011;54120;53.504;49.426;2023-06-14T08:24:27;4.97;;;3.40;;
67191;SDS011;54120;53.504;49.426;2023-06-14T08:26:53;4.40;;;3.63;;
67191;SDS011;54120;53.504;49.426;2023-06-14T08:29:19;9.18;;;3.38;;
67191;SDS011;54120;53.504;49.426;2023-06-14T08:31:46;4.18;;;3.03;;
67191;SDS011;54120;53.504;49.426;2023-06-14T08:34:12;4.90;;;3.17;;
67191;SDS011;54120;53.504;49.426;2023-06-14T08:36:38;9.63;;;3.38;;
67191;SDS011;54120;53.504;49.426;2023-06-14T08:39:05;4.78;;;3.00;;
67191;SDS011;54120;53.504;49.426;2023-06-14T08:41:31;4.75;;;3.00;;
67191;SDS011;54120;53.504;49.426;2023-06-14T08:43:58;7.95;;;3.28;;
67191;SDS011;54120;53.504;49.426;2023-06-14T08:46:25;4.68;;;3.25;;
67191;SDS011;54120;53.504;49.426;2023-06-14T08:48:52;7.68;;;3.38;;
67191;SDS011;54120;53.504;49.426;2023-06-14T08:51:24;6.40;;;3.28;;
67191;SDS011;54120;53.504;49.426;2023-06-14T08:53:53;6.70;;;3.38;;
67191;SDS011;54120;53.504;49.426;2023-06-14T08:56:28;11.57;;;3.65;;
67191;SDS011;54120;53.504;49.426;2023-06-14T08:58:56;5.25;;;3.45;;
67191;SDS011;54120;53.504;49.426;2023-06-14T09:01:26;8.15;;;3.65;;
67191;SDS011;54120;53.504;49.426;2023-06-14T09:03:53;10.93;;;3.60;;
67191;SDS011;54120;53.504;49.426;2023-06-14T09:06:22;5.22;;;3.58;;
67191;SDS011;54120;53.504;49.426;2023-06-14T09:08:50;6.13;;;3.80;;
67191;SDS011;54120;53.504;49.426;2023-06-14T09:11:17;12.27;;;4.05;;
67191;SDS011;54120;53.504;49.426;2023-06-14T09:13:48;9.65;;;4.28;;
67191;SDS011;54120;53.504;49.426;2023-06-14T09:16:15;8.98;;;3.88;;
67191;SDS011;54120;53.504;49.426;2023-06-14T09:18:42;9.95;;;4.68;;
67191;SDS011;54120;53.504;49.426;2023-06-14T09:21:11;7.85;;;4.50;;
67191;SDS011;54120;53.504;49.426;2023-06-14T09:23:38;6.85;;;3.78;;
67191;SDS011;54120;53.504;49.426;2023-06-14T09:26:14;10.45;;;2.90;;
67191;SDS011;54120;53.504;49.426;2023-06-14T09:28:45;9.32;;;3.13;;
67191;SDS011;54120;53.504;49.426;2023-06-14T09:31:16;7.25;;;3.10;;
67191;SDS011;54120;53.504;49.426;2023-06-14T09:33:43;4.60;;;3.00;;
67191;SDS011;54120;53.504;49.426;2023-06-14T09:38:55;3.75;;;2.95;;
67191;SDS011;54120;53.504;49.426;2023-06-14T09:44:06;5.75;;;3.00;;
67191;SDS011;54120;53.504;49.426;2023-06-14T09:46:33;4.15;;;2.50;;
67191;SDS011;54120;53.504;49.426;2023-06-14T09:49:01;4.68;;;2.60;;
67191;SDS011;54120;53.504;49.426;2023-06-14T09:51:28;6.93;;;3.00;;
67191;SDS011;54120;53.504;49.426;2023-06-14T09:54:01;10.65;;;2.90;;
67191;SDS011;54120;53.504;49.426;2023-06-14T09:56:31;7.57;;;2.50;;
67191;SDS011;54120;53.504;49.426;2023-06-14T09:59:00;17.27;;;3.33;;
67191;SDS011;54120;53.504;49.426;2023-06-14T10:04:02;8.70;;;2.70;;
67191;SDS011;54120;53.504;49.426;2023-06-14T10:06:30;7.93;;;2.70;;
67191;SDS011;54120;53.504;49.426;2023-06-14T10:08:57;5.82;;;2.90;;
67191;SDS011;54120;53.504;49.426;2023-06-14T10:11:27;3.35;;;2.33;;
67191;SDS011;54120;53.504;49.426;2023-06-14T10:13:57;9.50;;;3.03;;
67191;SDS011;54120;53.504;49.426;2023-06-14T10:16:27;11.85;;;3.10;;
67191;SDS011;54120;53.504;49.426;2023-06-14T10:19:23;8.23;;;3.60;;
67191;SDS011;54120;53.504;49.426;2023-06-14T10:22:08;9.43;;;3.15;;
67191;SDS011;54120;53.504;49.426;2023-06-14T10:27:07;4.93;;;2.80;;
67191;SDS011;54120;53.504;49.426;2023-06-14T10:32:24;3.58;;;2.72;;
67191;SDS011;54120;53.504;49.426;2023-06-14T10:34:55;5.68;;;2.67;;
67191;SDS011;54120;53.504;49.426;2023-06-14T10:37:21;4.30;;;2.47;;
67191;SDS011;54120;53.504;49.426;2023-06-14T10:39:47;7.03;;;2.67;;
67191;SDS011;54120;53.504;49.426;2023-06-14T10:42:15;3.63;;;2.58;;
67191;SDS011;54120;53.504;49.426;2023-06-14T10:44:42;3.45;;;2.50;;
67191;SDS011;54120;53.504;49.426;2023-06-14T10:49:54;5.00;;;2.40;;
67191;SDS011;54120;53.504;49.426;2023-06-14T10:52:22;7.07;;;3.13;;
67191;SDS011;54120;53.504;49.426;2023-06-14T10:57:26;5.68;;;2.97;;
67191;SDS011;54120;53.504;49.426;2023-06-14T10:59:53;6.25;;;2.70;;
67191;SDS011;54120;53.504;49.426;2023-06-14T11:11:08;2.40;;;2.20;;
67191;SDS011;54120;53.504;49.426;2023-06-14T11:13:38;7.80;;;2.63;;
67191;SDS011;54120;53.504;49.426;2023-06-14T11:16:12;5.60;;;2.40;;
67191;SDS011;54120;53.504;49.426;2023-06-14T11:18:39;7.28;;;2.50;;
67191;SDS011;54120;53.504;49.426;2023-06-14T11:21:06;3.15;;;2.38;;
67191;SDS011;54120;53.504;49.426;2023-06-14T11:23:34;5.18;;;2.13;;
67191;SDS011;54120;53.504;49.426;2023-06-14T11:26:01;4.40;;;2.20;;
67191;SDS011;54120;53.504;49.426;2023-06-14T11:28:35;3.78;;;2.08;;
67191;SDS011;54120;53.504;49.426;2023-06-14T11:31:05;4.22;;;2.40;;
67191;SDS011;54120;53.504;49.426;2023-06-14T11:33:32;5.90;;;2.38;;
67191;SDS011;54120;53.504;49.426;2023-06-14T11:36:01;5.25;;;2.33;;
67191;SDS011;54120;53.504;49.426;2023-06-14T11:38:30;4.20;;;2.33;;
67191;SDS011;54120;53.504;49.426;2023-06-14T11:40:59;4.07;;;2.75;;
67191;SDS011;54120;53.504;49.426;2023-06-14T11:43:26;5.50;;;2.22;;
67191;SDS011;54120;53.504;49.426;2023-06-14T11:45:52;3.15;;;2.20;;
67191;SDS011;54120;53.504;49.426;2023-06-14T11:48:18;5.60;;;2.40;;
67191;SDS011;54120;53.504;49.426;2023-06-14T11:50:49;4.28;;;2.55;;
67191;SDS011;54120;53.504;49.426;2023-06-14T11:53:15;3.80;;;2.40;;
67191;SDS011;54120;53.504;49.426;2023-06-14T11:55:42;3.85;;;2.30;;
67191;SDS011;54120;53.504;49.426;2023-06-14T11:58:10;5.05;;;2.58;;
67191;SDS011;54120;53.504;49.426;2023-06-14T12:00:37;4.47;;;1.92;;
67191;SDS011;54120;53.504;49.426;2023-06-14T12:03:03;4.63;;;2.38;;
67191;SDS011;54120;53.504;49.426;2023-06-14T12:05:30;7.63;;;2.60;;
67191;SDS011;54120;53.504;49.426;2023-06-14T12:07:59;4.68;;;3.10;;
67191;SDS011;54120;53.504;49.426;2023-06-14T12:10:27;6.85;;;2.60;;
67191;SDS011;54120;53.504;49.426;2023-06-14T12:12:57;4.70;;;2.38;;
67191;SDS011;54120;53.504;49.426;2023-06-14T12:15:27;7.95;;;2.55;;
67191;SDS011;54120;53.504;49.426;2023-06-14T12:17:54;4.80;;;2.40;;
67191;SDS011;54120;53.504;49.426;2023-06-14T12:20:20;3.25;;;2.50;;
67191;SDS011;54120;53.504;49.426;2023-06-14T12:27:59;5.68;;;2.92;;
67191;SDS011;54120;53.504;49.426;2023-06-14T12:30:32;6.10;;;3.08;;
67191;SDS011;54120;53.504;49.426;2023-06-14T12:32:59;6.32;;;3.08;;
67191;SDS011;54120;53.504;49.426;2023-06-14T12:35:26;12.60;;;3.50;;
67191;SDS011;54120;53.504;49.426;2023-06-14T12:37:52;6.18;;;3.67;;
67191;SDS011;54120;53.504;49.426;2023-06-14T12:40:18;10.23;;;4.57;;
67191;SDS011;54120;53.504;49.426;2023-06-14T12:42:45;12.70;;;4.07;;
67191;SDS011;54120;53.504;49.426;2023-06-14T12:45:14;11.75;;;4.35;;
67191;SDS011;54120;53.504;49.426;2023-06-14T12:47:40;8.18;;;4.43;;
67191;SDS011;54120;53.504;49.426;2023-06-14T12:50:06;11.52;;;4.63;;
67191;SDS011;54120;53.504;49.426;2023-06-14T12:52:33;5.20;;;3.28;;
67191;SDS011;54120;53.504;49.426;2023-06-14T12:55:05;8.40;;;3.55;;
67191;SDS011;54120;53.504;49.426;2023-06-14T12:57:32;6.43;;;3.50;;
67191;SDS011;54120;53.504;49.426;2023-06-14T12:59:59;12.57;;;3.58;;
67191;SDS011;54120;53.504;49.426;2023-06-14T13:02:25;7.22;;;3.20;;
67191;SDS011;54120;53.504;49.426;2023-06-14T13:04:52;10.25;;;3.72;;
67191;SDS011;54120;53.504;49.426;2023-06-14T13:07:18;6.47;;;3.47;;
67191;SDS011;54120;53.504;49.426;2023-06-14T13:09:45;6.53;;;3.63;;
67191;SDS011;54120;53.504;49.426;2023-06-14T13:12:11;12.85;;;5.18;;
67191;SDS011;54120;53.504;49.426;2023-06-14T13:14:38;7.95;;;3.90;;
67191;SDS011;54120;53.504;49.426;2023-06-14T13:17:07;10.95;;;4.13;;
67191;SDS011;54120;53.504;49.426;2023-06-14T13:19:34;15.05;;;3.90;;
67191;SDS011;54120;53.504;49.426;2023-06-14T13:22:00;13.25;;;3.95;;
67191;SDS011;54120;53.504;49.426;2023-06-14T13:24:26;8.57;;;3.95;;
67191;SDS011;54120;53.504;49.426;2023-06-14T13:26:53;14.30;;;4.28;;
67191;SDS011;54120;53.504;49.426;2023-06-14T13:29:20;6.22;;;4.00;;
67191;SDS011;54120;53.504;49.426;2023-06-14T13:31:46;9.75;;;4.20;;
67191;SDS011;54120;53.504;49.426;2023-06-14T13:34:12;9.32;;;3.40;;
67191;SDS011;54120;53.504;49.426;2023-06-14T13:36:38;9.65;;;4.10;;
67191;SDS011;54120;53.504;49.426;2023-06-14T13:39:04;11.80;;;3.90;;
67191;SDS011;54120;53.504;49.426;2023-06-14T13:41:31;7.13;;;3.90;;
67191;SDS011;54120;53.504;49.426;2023-06-14T13:43:59;11.13;;;3.85;;
67191;SDS011;54120;53.504;49.426;2023-06-14T13:46:26;12.23;;;4.22;;
67191;SDS011;54120;53.504;49.426;2023-06-14T13:48:52;9.32;;;4.40;;
67191;SDS011;54120;53.504;49.426;2023-06-14T13:51:18;10.35;;;4.60;;
67191;SDS011;54120;53.504;49.426;2023-06-14T13:53:48;13.35;;;4.30;;
67191;SDS011;54120;53.504;49.426;2023-06-14T13:56:15;8.48;;;4.00;;
67191;SDS011;54120;53.504;49.426;2023-06-14T13:58:41;10.52;;;4.82;;
67191;SDS011;54120;53.504;49.426;2023-06-14T14:01:07;8.73;;;4.00;;
67191;SDS011;54120;53.504;49.426;2023-06-14T14:03:34;7.35;;;3.55;;
67191;SDS011;54120;53.504;49.426;2023-06-14T14:06:01;8.05;;;3.55;;
67191;SDS011;54120;53.504;49.426;2023-06-14T14:08:27;7.80;;;3.17;;
67191;SDS011;54120;53.504;49.426;2023-06-14T14:10:54;9.23;;;4.50;;
67191;SDS011;54120;53.504;49.426;2023-06-14T14:13:21;9.13;;;4.93;;
67191;SDS011;54120;53.504;49.426;2023-06-14T14:15:48;9.80;;;4.45;;
67191;SDS011;54120;53.504;49.426;2023-06-14T14:18:18;12.05;;;4.90;;
67191;SDS011;54120;53.504;49.426;2023-06-14T14:20:46;11.35;;;4.22;;
67191;SDS011;54120;53.504;49.426;2023-06-14T14:23:13;11.93;;;4.22;;
67191;SDS011;54120;53.504;49.426;2023-06-14T14:25:39;8.77;;;3.90;;
67191;SDS011;54120;53.504;49.426;2023-06-14T14:28:05;13.02;;;3.95;;
67191;SDS011;54120;53.504;49.426;2023-06-14T14:30:31;7.38;;;3.65;;
67191;SDS011;54120;53.504;49.426;2023-06-14T14:32:58;15.02;;;3.50;;
67191;SDS011;54120;53.504;49.426;2023-06-14T14:35:24;7.75;;;3.83;;
67191;SDS011;54120;53.504;49.426;2023-06-14T14:37:55;20.85;;;4.53;;
67191;SDS011;54120;53.504;49.426;2023-06-14T14:40:22;23.35;;;5.15;;
67191;SDS011;54120;53.504;49.426;2023-06-14T14:42:48;16.27;;;4.55;;
67191;SDS011;54120;53.504;49.426;2023-06-14T14:45:14;13.43;;;3.50;;
67191;SDS011;54120;53.504;49.426;2023-06-14T14:47:40;19.33;;;4.18;;
67191;SDS011;54120;53.504;49.426;2023-06-14T14:50:06;13.02;;;3.60;;
67191;SDS011;54120;53.504;49.426;2023-06-14T14:52:34;14.80;;;4.20;;
67191;SDS011;54120;53.504;49.426;2023-06-14T14:55:01;13.95;;;4.85;;
67191;SDS011;54120;53.504;49.426;2023-06-14T14:57:27;12.80;;;3.50;;
67191;SDS011;54120;53.504;49.426;2023-06-14T14:59:55;15.38;;;4.55;;
67191;SDS011;54120;53.504;49.426;2023-06-14T15:02:21;15.25;;;4.68;;
67191;SDS011;54120;53.504;49.426;2023-06-14T15:04:49;15.45;;;3.63;;
67191;SDS011;54120;53.504;49.426;2023-06-14T15:07:15;11.13;;;3.97;;
67191;SDS011;54120;53.504;49.426;2023-06-14T15:09:42;11.65;;;3.50;;
67191;SDS011;54120;53.504;49.426;2023-06-14T15:12:08;10.88;;;3.90;;